createdAt,value
2022-11-30T00:01:24.097Z,11.30
2022-11-30T00:05:25.112Z,11.20
2022-11-30T00:09:26.070Z,11.40
2022-11-30T00:13:27.160Z,11.10
2022-11-30T00:17:28.263Z,10.60
2022-11-30T00:21:29.624Z,10.20
2022-11-30T00:25:30.601Z,8.90
2022-11-30T00:29:31.836Z,9.90
2022-11-30T00:33:35.216Z,10.30
2022-11-30T00:37:36.321Z,10.10
2022-11-30T00:41:38.058Z,10.20
2022-11-30T00:45:40.503Z,10.80
2022-11-30T00:49:41.419Z,10.70
2022-11-30T00:53:42.723Z,11.30
2022-11-30T00:57:43.728Z,11.20
2022-11-30T01:01:44.845Z,11.00
2022-11-30T01:05:46.113Z,11.20
2022-11-30T01:09:47.301Z,11.50
2022-11-30T01:13:48.536Z,11.40
2022-11-30T01:17:49.850Z,10.80
2022-11-30T01:21:51.122Z,10.70
2022-11-30T01:25:55.606Z,10.90
2022-11-30T01:29:57.097Z,10.60
2022-11-30T01:33:58.447Z,10.70
2022-11-30T01:37:59.697Z,10.30
2022-11-30T01:42:00.786Z,10.40
2022-11-30T01:46:02.192Z,10.70
2022-11-30T01:50:16.349Z,10.60
2022-11-30T01:54:22.156Z,10.20
2022-11-30T01:58:27.502Z,10.30
2022-11-30T02:02:32.662Z,9.90
2022-11-30T02:06:33.923Z,9.80
2022-11-30T02:10:38.106Z,10.40
2022-11-30T02:14:48.985Z,10.30
2022-11-30T02:19:09.419Z,10.00
2022-11-30T02:23:41.620Z,10.60
2022-11-30T02:28:14.661Z,10.90
2022-11-30T02:32:40.945Z,11.10
2022-11-30T02:36:43.304Z,10.90
2022-11-30T02:40:44.574Z,11.00
2022-11-30T02:44:51.341Z,10.50
2022-11-30T02:49:08.361Z,10.60
2022-11-30T02:53:09.930Z,11.10
2022-11-30T02:57:11.235Z,11.00
2022-11-30T03:01:12.581Z,11.00
2022-11-30T03:05:13.991Z,10.60
2022-11-30T03:09:15.280Z,11.00
2022-11-30T03:13:16.530Z,9.90
2022-11-30T03:17:17.942Z,10.60
2022-11-30T03:21:19.040Z,10.80
2022-11-30T03:25:20.219Z,10.70
2022-11-30T03:29:21.546Z,10.70
2022-11-30T03:33:23.758Z,11.10
2022-11-30T03:37:24.921Z,11.20
2022-11-30T03:41:26.454Z,11.00
2022-11-30T03:45:27.770Z,10.80
2022-11-30T03:49:28.875Z,10.90
2022-11-30T03:53:30.847Z,11.10
2022-11-30T03:57:31.999Z,11.00
2022-11-30T04:01:33.256Z,11.10
2022-11-30T04:05:34.511Z,10.80
2022-11-30T04:09:36.693Z,10.60
2022-11-30T04:13:39.419Z,10.80
2022-11-30T04:17:40.534Z,10.90
2022-11-30T04:21:41.814Z,10.30
2022-11-30T04:25:43.243Z,10.60
2022-11-30T04:29:44.318Z,10.50
2022-11-30T04:33:45.325Z,10.60
2022-11-30T04:37:46.445Z,10.30
2022-11-30T04:41:47.649Z,10.40
2022-11-30T04:45:48.822Z,10.60
2022-11-30T04:49:49.891Z,10.60
2022-11-30T04:53:51.216Z,10.70
2022-11-30T04:57:52.593Z,10.00
2022-11-30T05:01:53.981Z,10.10
2022-11-30T05:05:55.141Z,10.40
2022-11-30T05:09:56.358Z,10.60
2022-11-30T05:13:57.444Z,10.60
2022-11-30T05:18:00.544Z,11.00
2022-11-30T05:22:01.597Z,11.00
2022-11-30T05:26:03.489Z,10.90
2022-11-30T05:30:06.929Z,11.20
2022-11-30T05:34:08.002Z,10.30
2022-11-30T05:38:09.171Z,10.50
2022-11-30T05:42:11.389Z,10.40
2022-11-30T05:46:12.832Z,10.70
2022-11-30T05:50:14.372Z,10.90
2022-11-30T05:54:15.435Z,11.00
2022-11-30T05:58:16.522Z,11.10
2022-11-30T06:02:17.764Z,11.10
2022-11-30T06:06:19.583Z,10.90
2022-11-30T06:10:21.177Z,11.10
2022-11-30T06:14:22.357Z,11.40
2022-11-30T06:18:23.444Z,10.70
2022-11-30T06:22:24.536Z,10.70
2022-11-30T06:26:25.807Z,11.00
2022-11-30T06:30:26.861Z,11.20
2022-11-30T06:34:31.027Z,10.70
2022-11-30T06:38:32.293Z,11.30
2022-11-30T06:42:34.293Z,11.30
2022-11-30T06:46:35.462Z,11.10
2022-11-30T06:50:36.849Z,11.50
2022-11-30T06:54:37.974Z,11.50
2022-11-30T06:58:40.100Z,11.40
2022-11-30T07:02:41.098Z,11.30
2022-11-30T07:06:42.950Z,11.30
2022-11-30T07:10:46.154Z,11.30
2022-11-30T07:14:47.537Z,11.30
2022-11-30T07:18:48.783Z,11.20
2022-11-30T07:22:49.737Z,11.10
2022-11-30T07:26:50.909Z,11.30
2022-11-30T07:30:52.169Z,11.10
2022-11-30T07:34:53.333Z,11.40
2022-11-30T07:38:54.346Z,11.20
2022-11-30T07:42:55.519Z,11.10
2022-11-30T07:46:57.056Z,11.30
2022-11-30T07:51:03.663Z,11.30
2022-11-30T07:55:06.102Z,11.20
2022-11-30T07:59:07.322Z,11.00
2022-11-30T08:03:08.850Z,11.40
2022-11-30T08:07:10.335Z,10.90
2022-11-30T08:11:13.858Z,10.70
2022-11-30T08:15:20.410Z,10.10
2022-11-30T08:19:19.221Z,10.60
2022-11-30T08:23:20.354Z,11.40
2022-11-30T08:27:21.529Z,11.10
2022-11-30T08:31:28.969Z,11.70
2022-11-30T08:35:30.294Z,11.70
2022-11-30T08:39:33.464Z,11.90
2022-11-30T08:43:34.992Z,11.90
2022-11-30T08:47:36.347Z,12.10
2022-11-30T08:52:00.805Z,12.00
2022-11-30T08:55:41.084Z,11.80
2022-11-30T08:59:42.428Z,11.20
2022-11-30T09:03:45.566Z,11.50
2022-11-30T09:07:46.866Z,11.60
2022-11-30T09:11:48.611Z,11.90
2022-11-30T09:15:56.021Z,11.30
2022-11-30T09:19:57.330Z,10.10
2022-11-30T09:23:58.443Z,9.00
2022-11-30T09:27:59.629Z,10.10
2022-11-30T09:32:00.946Z,9.90
2022-11-30T09:36:05.402Z,10.20
2022-11-30T09:40:07.807Z,10.10
2022-11-30T09:44:24.995Z,10.10
2022-11-30T09:48:32.658Z,9.80
2022-11-30T09:52:37.244Z,10.20
2022-11-30T09:56:40.253Z,11.30
2022-11-30T10:00:41.511Z,11.30
2022-11-30T10:04:43.138Z,9.90
2022-11-30T10:09:18.816Z,10.00
2022-11-30T10:13:36.051Z,9.90
2022-11-30T10:17:53.240Z,9.80
2022-11-30T10:22:21.280Z,8.40
2022-11-30T10:26:35.112Z,8.50
2022-11-30T10:30:36.503Z,9.20
2022-11-30T10:34:39.793Z,9.30
2022-11-30T10:38:44.908Z,8.80
2022-11-30T10:42:49.922Z,8.20
2022-11-30T10:46:58.005Z,8.50
2022-11-30T10:51:01.707Z,9.10
2022-11-30T10:55:05.454Z,9.00
2022-11-30T10:59:13.494Z,8.90
2022-11-30T11:03:24.232Z,8.60
2022-11-30T11:07:26.220Z,8.60
2022-11-30T11:11:38.521Z,9.20
2022-11-30T11:15:40.087Z,8.50
2022-11-30T11:19:43.097Z,8.60
2022-11-30T11:23:46.722Z,8.70
2022-11-30T11:27:57.214Z,9.00
2022-11-30T11:32:20.578Z,9.00
2022-11-30T11:36:28.473Z,8.50
2022-11-30T11:40:30.571Z,8.60
2022-11-30T11:44:33.127Z,8.50
2022-11-30T11:48:40.242Z,8.10
2022-11-30T11:52:41.610Z,8.80
2022-11-30T11:56:44.045Z,8.60
2022-11-30T12:00:48.021Z,9.00
2022-11-30T12:04:56.160Z,9.20
2022-11-30T12:09:07.252Z,8.80
2022-11-30T12:13:23.091Z,8.90
2022-11-30T12:17:28.035Z,8.80
2022-11-30T12:21:52.067Z,8.50
2022-11-30T12:26:18.262Z,8.40
2022-11-30T12:30:29.576Z,9.30
2022-11-30T12:34:37.082Z,8.40
2022-11-30T12:38:51.094Z,9.20
2022-11-30T12:43:08.326Z,9.40
2022-11-30T12:47:36.356Z,9.10
2022-11-30T12:51:41.449Z,9.70
2022-11-30T12:56:09.860Z,8.90
2022-11-30T13:00:21.066Z,8.80
2022-11-30T13:04:35.047Z,8.50
2022-11-30T13:08:56.712Z,8.90
2022-11-30T13:13:00.362Z,9.00
2022-11-30T13:17:05.202Z,9.00
2022-11-30T13:21:25.426Z,9.20
2022-11-30T13:26:06.139Z,9.50
2022-11-30T13:29:52.552Z,9.50
2022-11-30T13:33:57.549Z,9.00
2022-11-30T13:38:35.297Z,9.60
2022-11-30T13:42:28.872Z,9.30
2022-11-30T13:46:30.484Z,9.10
2022-11-30T13:50:35.968Z,8.80
2022-11-30T13:54:46.474Z,8.60
2022-11-30T13:59:24.461Z,9.00
2022-11-30T14:03:28.141Z,8.90
2022-11-30T14:07:37.792Z,9.00
2022-11-30T14:11:41.757Z,8.60
2022-11-30T14:15:46.858Z,8.70
2022-11-30T14:19:51.627Z,8.80
2022-11-30T14:24:01.589Z,9.40
2022-11-30T14:28:05.263Z,9.00
2022-11-30T14:32:16.688Z,8.70
2022-11-30T14:36:19.912Z,9.40
2022-11-30T14:40:24.859Z,8.90
2022-11-30T14:44:26.670Z,8.60
2022-11-30T14:48:28.488Z,8.70
2022-11-30T14:52:42.467Z,9.20
2022-11-30T14:56:52.449Z,8.50
2022-11-30T15:00:54.432Z,8.30
2022-11-30T15:04:57.890Z,8.40
2022-11-30T15:09:01.029Z,8.50
2022-11-30T15:13:03.078Z,8.40
2022-11-30T15:17:07.974Z,8.80
2022-11-30T15:21:19.038Z,8.90
2022-11-30T15:25:22.500Z,10.20
2022-11-30T15:29:33.730Z,10.30
2022-11-30T15:33:41.441Z,10.50
2022-11-30T15:37:42.930Z,9.80
2022-11-30T15:41:44.280Z,9.80
2022-11-30T15:45:57.944Z,10.60
2022-11-30T15:49:59.330Z,10.30
2022-11-30T15:54:00.890Z,9.00
2022-11-30T15:58:02.866Z,8.80
2022-11-30T16:02:06.449Z,8.80
2022-11-30T16:06:11.534Z,9.50
2022-11-30T16:10:31.662Z,9.20
2022-11-30T16:14:32.704Z,8.50
2022-11-30T16:18:33.978Z,10.10
2022-11-30T16:22:36.806Z,11.10
2022-11-30T16:26:53.349Z,11.40
2022-11-30T16:30:42.602Z,10.00
2022-11-30T16:34:43.998Z,11.10
2022-11-30T16:38:50.296Z,11.40
2022-11-30T16:42:52.173Z,11.60
2022-11-30T16:46:53.512Z,11.50
2022-11-30T16:50:54.790Z,11.70
2022-11-30T16:54:56.010Z,11.60
2022-11-30T16:58:57.104Z,11.20
2022-11-30T17:03:18.833Z,11.50
2022-11-30T17:07:20.177Z,11.60
2022-11-30T17:11:30.573Z,11.50
2022-11-30T17:15:31.822Z,11.00
2022-11-30T17:19:33.962Z,10.80
2022-11-30T17:23:35.308Z,10.60
2022-11-30T17:27:36.581Z,11.00
2022-11-30T17:31:38.254Z,10.90
2022-11-30T17:35:39.805Z,10.50
2022-11-30T17:39:42.410Z,11.30
2022-11-30T17:43:43.975Z,11.60
2022-11-30T17:47:45.134Z,11.70
2022-11-30T17:51:46.234Z,11.50
2022-11-30T17:55:47.659Z,11.60
2022-11-30T17:59:48.894Z,11.70
2022-11-30T18:03:51.388Z,11.90
2022-11-30T18:07:52.575Z,11.00
2022-11-30T18:11:53.594Z,11.30
2022-11-30T18:15:58.591Z,11.30
2022-11-30T18:20:00.044Z,10.70
2022-11-30T18:24:01.439Z,10.50
2022-11-30T18:28:02.941Z,10.90
2022-11-30T18:32:04.515Z,10.10
2022-11-30T18:36:06.744Z,10.70
2022-11-30T18:40:09.319Z,11.40
2022-11-30T18:44:10.839Z,11.40
2022-11-30T18:48:12.248Z,11.60
2022-11-30T18:52:13.563Z,10.70
2022-11-30T18:56:17.940Z,9.30
2022-11-30T19:00:19.696Z,9.60
2022-11-30T19:04:25.912Z,10.10
2022-11-30T19:08:26.994Z,11.00
2022-11-30T19:12:28.081Z,11.40
2022-11-30T19:16:30.831Z,11.60
2022-11-30T19:20:37.651Z,10.80
2022-11-30T19:24:38.680Z,11.10
2022-11-30T19:28:41.117Z,11.10
2022-11-30T19:32:42.193Z,11.30
2022-11-30T19:36:43.364Z,10.40
2022-11-30T19:40:44.399Z,9.90
2022-11-30T19:44:45.955Z,10.00
2022-11-30T19:48:47.460Z,10.50
2022-11-30T19:52:49.539Z,10.50
2022-11-30T19:56:50.648Z,10.10
2022-11-30T20:00:53.319Z,9.20
2022-11-30T20:04:54.408Z,9.50
2022-11-30T20:08:56.226Z,9.80
2022-11-30T20:12:58.755Z,9.40
2022-11-30T20:16:59.824Z,10.20
2022-11-30T20:21:19.858Z,9.70
2022-11-30T20:25:23.570Z,8.70
2022-11-30T20:29:24.855Z,8.90
2022-11-30T20:33:26.995Z,8.00
2022-11-30T20:37:28.046Z,7.50
2022-11-30T20:41:29.343Z,7.10
2022-11-30T20:45:30.577Z,7.40
2022-11-30T20:49:32.140Z,6.90
2022-11-30T20:53:33.903Z,7.10
2022-11-30T20:57:34.880Z,7.40
2022-11-30T21:01:36.002Z,7.20
2022-11-30T21:05:38.469Z,7.10
2022-11-30T21:09:39.548Z,7.20
2022-11-30T21:13:43.594Z,7.30
2022-11-30T21:17:44.604Z,7.70
2022-11-30T21:21:45.836Z,7.20
2022-11-30T21:25:46.849Z,6.90
2022-11-30T21:29:48.035Z,7.00
2022-11-30T21:33:53.100Z,6.90
2022-11-30T21:37:52.272Z,7.20
2022-11-30T21:41:53.386Z,7.20
2022-11-30T21:46:02.850Z,7.30
2022-11-30T21:50:04.804Z,7.00
2022-11-30T21:54:09.928Z,6.70
2022-11-30T21:58:10.936Z,6.70
2022-11-30T22:02:12.061Z,7.20
2022-11-30T22:06:15.698Z,7.40
2022-11-30T22:10:16.691Z,7.00
2022-11-30T22:14:17.709Z,7.20
2022-11-30T22:18:18.741Z,7.40
2022-11-30T22:22:19.784Z,7.10
2022-11-30T22:26:23.323Z,7.50
2022-11-30T22:30:24.320Z,7.90
2022-11-30T22:34:25.914Z,7.10
2022-11-30T22:38:28.506Z,7.50
2022-11-30T22:42:29.475Z,7.30
2022-11-30T22:46:33.330Z,7.10
2022-11-30T22:50:34.852Z,7.10
2022-11-30T22:54:35.938Z,6.80
2022-11-30T22:58:39.143Z,7.40
2022-11-30T23:02:40.605Z,7.10
2022-11-30T23:06:43.000Z,7.40
2022-11-30T23:10:44.013Z,7.30
2022-11-30T23:14:45.223Z,7.70
2022-11-30T23:18:49.982Z,6.60
2022-11-30T23:22:51.235Z,7.70
2022-11-30T23:26:52.354Z,7.90
2022-11-30T23:30:53.730Z,7.70
2022-11-30T23:34:54.838Z,7.60
2022-11-30T23:38:58.770Z,7.60
2022-11-30T23:42:59.943Z,7.60
2022-11-30T23:47:01.045Z,7.60
2022-11-30T23:51:02.890Z,7.70
2022-11-30T23:55:05.034Z,7.60
2022-11-30T23:59:06.217Z,7.70
